createdAt,value
2022-11-06T00:01:53.228Z,1.62
2022-11-06T00:04:20.276Z,2.06
2022-11-06T00:06:49.924Z,1.80
2022-11-06T00:09:20.810Z,1.66
2022-11-06T00:11:49.875Z,1.55
2022-11-06T00:14:18.065Z,1.47
2022-11-06T00:16:46.618Z,1.68
2022-11-06T00:19:14.323Z,1.50
2022-11-06T00:21:41.527Z,1.42
2022-11-06T00:24:10.760Z,1.87
2022-11-06T00:26:37.928Z,2.00
2022-11-06T00:29:06.140Z,1.88
2022-11-06T00:31:36.913Z,2.07
2022-11-06T00:34:07.535Z,2.03
2022-11-06T00:36:35.153Z,2.14
2022-11-06T00:39:02.507Z,2.20
2022-11-06T00:41:29.911Z,1.96
2022-11-06T00:44:02.496Z,1.87
2022-11-06T00:46:29.916Z,2.09
2022-11-06T00:48:57.180Z,2.05
2022-11-06T00:51:39.471Z,1.89
2022-11-06T00:54:09.253Z,1.81
2022-11-06T00:56:36.273Z,1.73
2022-11-06T00:59:05.910Z,1.64
2022-11-06T01:01:39.347Z,1.59
2022-11-06T01:04:22.932Z,1.49
2022-11-06T01:06:53.631Z,2.07
2022-11-06T01:09:25.175Z,2.28
2022-11-06T01:14:43.724Z,1.89
2022-11-06T01:17:10.930Z,1.66
2022-11-06T01:19:38.567Z,1.57
2022-11-06T01:22:05.899Z,1.43
2022-11-06T01:24:33.007Z,1.36
2022-11-06T01:29:47.487Z,1.29
2022-11-06T01:32:14.397Z,1.20
2022-11-06T01:34:41.343Z,1.50
2022-11-06T01:37:13.235Z,1.65
2022-11-06T01:39:41.980Z,1.39
2022-11-06T01:42:12.740Z,1.16
2022-11-06T01:45:21.741Z,1.11
2022-11-06T01:47:49.118Z,1.04
2022-11-06T01:50:17.794Z,1.06
2022-11-06T01:52:47.591Z,1.38
2022-11-06T01:55:30.472Z,1.32
2022-11-06T01:58:00.742Z,1.23
2022-11-06T02:00:27.927Z,1.85
2022-11-06T02:02:55.268Z,2.03
2022-11-06T02:05:22.387Z,1.76
2022-11-06T02:07:49.505Z,1.80
2022-11-06T02:10:16.960Z,1.86
2022-11-06T02:13:02.184Z,1.69
2022-11-06T02:16:09.678Z,1.43
2022-11-06T02:19:19.257Z,1.20
2022-11-06T02:22:31.668Z,1.23
2022-11-06T02:25:16.315Z,1.32
2022-11-06T02:27:52.105Z,1.43
2022-11-06T02:30:19.374Z,1.58
2022-11-06T02:33:01.653Z,1.41
2022-11-06T02:36:01.611Z,0.98
2022-11-06T02:38:50.333Z,0.78
2022-11-06T02:41:23.154Z,0.64
2022-11-06T02:43:55.312Z,0.53
2022-11-06T02:46:54.287Z,0.46
2022-11-06T02:49:51.256Z,0.37
2022-11-06T02:52:26.639Z,0.33
2022-11-06T02:55:12.393Z,0.35
2022-11-06T02:57:43.532Z,0.33
2022-11-06T03:00:13.707Z,0.48
2022-11-06T03:03:04.138Z,0.83
2022-11-06T03:05:39.852Z,1.14
2022-11-06T03:08:17.868Z,1.14
2022-11-06T03:11:07.046Z,1.11
2022-11-06T03:13:45.341Z,0.82
2022-11-06T03:16:57.962Z,0.76
2022-11-06T03:19:35.362Z,0.72
2022-11-06T03:22:05.649Z,0.60
2022-11-06T03:24:45.329Z,0.48
2022-11-06T03:27:26.177Z,0.89
2022-11-06T03:30:04.676Z,0.81
2022-11-06T03:32:42.514Z,0.41
2022-11-06T03:35:13.561Z,0.47
2022-11-06T03:37:48.300Z,0.28
2022-11-06T03:40:20.700Z,0.16
2022-11-06T03:42:49.370Z,0.13
2022-11-06T03:45:20.627Z,0.03
2022-11-06T03:48:11.680Z,-0.03
2022-11-06T03:50:49.583Z,0.02
2022-11-06T03:53:47.102Z,0.56
2022-11-06T03:56:25.907Z,0.41
2022-11-06T03:58:54.835Z,0.23
2022-11-06T04:01:27.503Z,-0.05
2022-11-06T04:04:01.854Z,0.19
2022-11-06T04:06:42.945Z,0.03
2022-11-06T04:09:31.089Z,0.27
2022-11-06T04:12:20.180Z,0.04
2022-11-06T04:14:51.843Z,0.31
2022-11-06T04:17:21.377Z,-0.01
2022-11-06T04:19:52.667Z,0.14
2022-11-06T04:22:25.534Z,0.10
2022-11-06T04:25:41.463Z,0.03
2022-11-06T04:28:19.897Z,0.18
2022-11-06T04:31:12.253Z,-0.01
2022-11-06T04:34:07.655Z,-0.18
2022-11-06T04:36:46.666Z,0.06
2022-11-06T04:39:22.808Z,0.11
2022-11-06T04:42:11.378Z,-0.15
2022-11-06T04:44:44.181Z,-0.24
2022-11-06T04:47:18.784Z,0.04
2022-11-06T04:49:48.533Z,-0.17
2022-11-06T04:52:26.126Z,0.21
2022-11-06T04:54:55.027Z,-0.07
2022-11-06T04:57:26.060Z,-0.09
2022-11-06T04:59:53.430Z,-0.25
2022-11-06T05:02:20.906Z,-0.34
2022-11-06T05:04:48.344Z,-0.31
2022-11-06T05:07:16.029Z,-0.44
2022-11-06T05:09:43.425Z,-0.43
2022-11-06T05:12:10.782Z,-0.51
2022-11-06T05:14:38.270Z,-0.57
2022-11-06T05:17:05.607Z,-0.62
2022-11-06T05:19:32.992Z,-0.63
2022-11-06T05:22:19.252Z,-0.67
2022-11-06T05:24:46.610Z,-0.58
2022-11-06T05:27:14.014Z,-0.57
2022-11-06T05:29:41.387Z,-0.47
2022-11-06T05:32:08.676Z,-0.44
2022-11-06T05:34:36.027Z,-0.50
2022-11-06T05:37:03.155Z,-0.18
2022-11-06T05:39:30.453Z,-0.28
2022-11-06T05:41:58.559Z,-0.26
2022-11-06T05:44:25.963Z,-0.22
2022-11-06T05:46:53.264Z,-0.15
2022-11-06T05:49:20.572Z,0.63
2022-11-06T05:51:48.189Z,0.69
2022-11-06T05:54:15.427Z,0.32
2022-11-06T05:56:42.466Z,0.40
2022-11-06T05:59:09.509Z,0.43
2022-11-06T06:01:36.604Z,0.15
2022-11-06T06:04:03.902Z,-0.32
2022-11-06T06:06:31.164Z,-0.26
2022-11-06T06:08:58.120Z,-0.38
2022-11-06T06:11:25.546Z,-0.41
2022-11-06T06:13:53.025Z,-0.44
2022-11-06T06:16:20.073Z,-0.58
2022-11-06T06:18:50.869Z,-0.65
2022-11-06T06:21:18.359Z,-0.55
2022-11-06T06:23:45.365Z,-0.44
2022-11-06T06:26:12.298Z,-0.38
2022-11-06T06:28:39.422Z,-0.18
2022-11-06T06:31:07.789Z,-0.40
2022-11-06T06:33:34.745Z,-0.44
2022-11-06T06:36:06.366Z,-0.38
2022-11-06T06:38:33.758Z,-0.39
2022-11-06T06:41:03.291Z,-0.36
2022-11-06T06:43:30.653Z,-0.16
2022-11-06T06:45:59.916Z,0.09
2022-11-06T06:48:27.679Z,0.25
2022-11-06T06:51:01.867Z,0.82
2022-11-06T06:53:29.581Z,0.97
2022-11-06T06:55:59.698Z,0.58
2022-11-06T06:58:27.946Z,0.51
2022-11-06T07:00:55.759Z,0.52
2022-11-06T07:03:23.090Z,0.80
2022-11-06T07:05:50.400Z,0.74
2022-11-06T07:08:17.720Z,0.92
2022-11-06T07:10:45.067Z,1.17
2022-11-06T07:13:12.710Z,1.38
2022-11-06T07:15:40.243Z,1.31
2022-11-06T07:18:08.229Z,1.01
2022-11-06T07:20:36.147Z,0.89
2022-11-06T07:23:07.462Z,0.68
2022-11-06T07:25:35.265Z,0.91
2022-11-06T07:28:04.111Z,0.80
2022-11-06T07:30:32.968Z,1.00
2022-11-06T07:33:05.559Z,1.19
2022-11-06T07:35:35.400Z,1.60
2022-11-06T07:38:07.029Z,1.71
2022-11-06T07:40:34.803Z,2.40
2022-11-06T07:43:07.483Z,2.46
2022-11-06T07:45:34.893Z,2.76
2022-11-06T07:48:02.345Z,3.36
2022-11-06T07:50:29.899Z,3.76
2022-11-06T07:52:57.295Z,4.26
2022-11-06T07:55:24.590Z,4.63
2022-11-06T07:57:51.648Z,4.56
2022-11-06T08:00:21.072Z,4.64
2022-11-06T08:02:53.044Z,4.83
2022-11-06T08:05:20.816Z,5.05
2022-11-06T08:07:48.222Z,4.93
2022-11-06T08:10:15.579Z,5.26
2022-11-06T08:12:42.906Z,5.64
2022-11-06T08:15:10.563Z,6.07
2022-11-06T08:17:37.925Z,6.79
2022-11-06T08:20:05.677Z,7.30
2022-11-06T08:22:32.636Z,8.05
2022-11-06T08:24:59.551Z,8.45
2022-11-06T08:27:28.063Z,8.82
2022-11-06T08:29:54.957Z,8.61
2022-11-06T08:32:21.819Z,8.75
2022-11-06T08:34:48.704Z,9.09
2022-11-06T08:37:15.605Z,9.45
2022-11-06T08:39:44.342Z,9.01
2022-11-06T08:42:11.959Z,9.57
2022-11-06T08:44:39.012Z,9.71
2022-11-06T08:47:05.927Z,10.05
2022-11-06T08:49:32.835Z,10.39
2022-11-06T08:51:59.796Z,10.76
2022-11-06T08:54:27.088Z,10.16
2022-11-06T08:56:54.029Z,10.62
2022-11-06T08:59:20.903Z,12.13
2022-11-06T09:01:47.860Z,13.16
2022-11-06T09:04:14.828Z,12.30
2022-11-06T09:06:41.714Z,12.14
2022-11-06T09:09:08.674Z,-146.07
2022-11-06T09:11:35.632Z,-146.07
2022-11-06T09:14:02.484Z,-146.07
2022-11-06T09:16:29.370Z,-146.07
2022-11-06T09:18:57.188Z,-146.07
2022-11-06T09:21:24.452Z,-146.07
2022-11-06T09:23:51.475Z,-146.07
2022-11-06T09:26:18.541Z,-146.07
2022-11-06T09:28:46.986Z,-146.07
2022-11-06T09:31:14.140Z,-146.07
2022-11-06T09:33:41.250Z,-146.07
2022-11-06T09:36:08.447Z,-146.07
2022-11-06T09:38:35.413Z,-146.07
2022-11-06T09:41:03.686Z,-146.07
2022-11-06T09:44:04.641Z,-146.07
2022-11-06T09:46:42.927Z,-146.07
2022-11-06T09:49:36.490Z,-146.07
2022-11-06T09:52:33.731Z,-146.07
2022-11-06T09:55:10.918Z,-146.07
2022-11-06T09:57:44.207Z,-146.07
2022-11-06T10:00:15.624Z,-146.07
2022-11-06T10:02:45.701Z,-146.07
2022-11-06T10:05:33.435Z,12.14
2022-11-06T10:08:12.780Z,10.92
2022-11-06T10:11:18.999Z,12.06
2022-11-06T10:14:06.884Z,11.55
2022-11-06T10:16:54.421Z,11.49
2022-11-06T10:19:45.543Z,11.49
2022-11-06T10:22:18.352Z,11.78
2022-11-06T10:25:22.253Z,11.43
2022-11-06T10:28:23.623Z,11.57
2022-11-06T10:31:09.417Z,10.82
2022-11-06T10:33:55.317Z,10.71
2022-11-06T10:36:51.498Z,11.11
2022-11-06T10:39:31.251Z,11.23
2022-11-06T10:42:04.894Z,11.42
2022-11-06T10:44:48.709Z,12.42
2022-11-06T10:47:22.317Z,12.79
2022-11-06T10:49:56.833Z,12.91
2022-11-06T10:52:55.822Z,11.97
2022-11-06T10:55:53.506Z,11.95
2022-11-06T10:58:27.492Z,10.81
2022-11-06T11:01:02.866Z,11.09
2022-11-06T11:03:42.250Z,10.95
2022-11-06T11:06:09.480Z,10.93
2022-11-06T11:08:37.807Z,10.76
2022-11-06T11:11:22.826Z,10.84
2022-11-06T11:13:57.275Z,10.63
2022-11-06T11:16:29.992Z,10.60
2022-11-06T11:19:26.751Z,10.67
2022-11-06T11:22:04.727Z,10.97
2022-11-06T11:24:32.467Z,11.14
2022-11-06T11:27:04.572Z,11.56
2022-11-06T11:29:55.249Z,11.89
2022-11-06T11:32:22.858Z,12.29
2022-11-06T11:34:56.676Z,12.37
2022-11-06T11:37:29.689Z,12.67
2022-11-06T11:40:36.445Z,11.92
2022-11-06T11:43:19.497Z,11.71
2022-11-06T11:46:08.106Z,11.02
2022-11-06T11:48:45.179Z,11.26
2022-11-06T11:51:30.664Z,11.62
2022-11-06T11:54:11.293Z,11.27
2022-11-06T11:57:07.676Z,11.49
2022-11-06T12:00:00.235Z,12.32
2022-11-06T12:02:44.157Z,11.96
2022-11-06T12:05:21.832Z,12.42
2022-11-06T12:07:57.818Z,12.08
2022-11-06T12:10:33.627Z,12.52
2022-11-06T12:13:04.918Z,12.34
2022-11-06T12:15:58.675Z,12.49
2022-11-06T12:18:37.683Z,12.74
2022-11-06T12:21:28.500Z,12.84
2022-11-06T12:24:06.642Z,12.72
2022-11-06T12:26:48.800Z,12.78
2022-11-06T12:29:22.797Z,12.70
2022-11-06T12:31:59.443Z,12.02
2022-11-06T12:34:51.445Z,12.18
2022-11-06T12:37:21.738Z,11.62
2022-11-06T12:40:05.162Z,12.14
2022-11-06T12:42:34.730Z,12.29
2022-11-06T12:45:02.170Z,12.30
2022-11-06T12:47:35.510Z,12.59
2022-11-06T12:50:29.173Z,12.84
2022-11-06T12:53:32.140Z,12.48
2022-11-06T12:56:25.555Z,12.07
2022-11-06T12:59:02.295Z,12.13
2022-11-06T13:01:53.430Z,12.27
2022-11-06T13:05:03.177Z,12.06
2022-11-06T13:08:09.240Z,11.28
2022-11-06T13:10:39.109Z,11.24
2022-11-06T13:13:24.641Z,11.26
2022-11-06T13:16:29.996Z,10.89
2022-11-06T13:19:06.095Z,10.95
2022-11-06T13:21:51.651Z,10.55
2022-11-06T13:24:21.919Z,10.44
2022-11-06T13:26:54.125Z,10.42
2022-11-06T13:29:23.476Z,10.54
2022-11-06T13:32:03.116Z,10.25
2022-11-06T13:34:37.876Z,10.17
2022-11-06T13:37:35.200Z,10.26
2022-11-06T13:40:21.773Z,10.44
2022-11-06T13:42:57.827Z,10.56
2022-11-06T13:45:25.336Z,10.52
2022-11-06T13:48:10.499Z,10.76
2022-11-06T13:50:50.904Z,10.81
2022-11-06T13:53:24.994Z,10.53
2022-11-06T13:56:16.960Z,10.31
2022-11-06T13:59:08.588Z,10.19
2022-11-06T14:02:13.480Z,9.79
2022-11-06T14:05:10.961Z,9.80
2022-11-06T14:07:39.775Z,9.74
2022-11-06T14:10:16.541Z,9.61
2022-11-06T14:12:50.126Z,9.64
2022-11-06T14:15:28.824Z,9.62
2022-11-06T14:17:58.149Z,9.53
2022-11-06T14:20:32.949Z,9.47
2022-11-06T14:23:29.612Z,9.28
2022-11-06T14:26:05.396Z,9.15
2022-11-06T14:28:40.764Z,9.10
2022-11-06T14:31:14.986Z,9.02
2022-11-06T14:33:43.164Z,8.92
2022-11-06T14:36:34.854Z,8.81
2022-11-06T14:39:03.773Z,8.72
2022-11-06T14:41:38.347Z,8.66
2022-11-06T14:44:22.394Z,8.53
2022-11-06T14:46:51.690Z,8.50
2022-11-06T14:49:53.200Z,8.43
2022-11-06T14:52:22.047Z,8.35
2022-11-06T14:55:07.903Z,8.31
2022-11-06T14:57:50.567Z,8.26
2022-11-06T15:00:43.923Z,8.19
2022-11-06T15:03:33.152Z,8.09
2022-11-06T15:06:07.664Z,8.02
2022-11-06T15:08:48.031Z,7.96
2022-11-06T15:11:30.907Z,7.97
2022-11-06T15:14:04.818Z,7.94
2022-11-06T15:16:40.848Z,7.84
2022-11-06T15:19:22.290Z,7.79
2022-11-06T15:22:00.718Z,7.78
2022-11-06T15:24:41.087Z,7.77
2022-11-06T15:27:21.803Z,7.71
2022-11-06T15:29:56.632Z,7.68
2022-11-06T15:32:27.267Z,7.61
2022-11-06T15:35:24.044Z,7.57
2022-11-06T15:37:56.110Z,7.52
2022-11-06T15:40:38.783Z,7.56
2022-11-06T15:43:34.384Z,7.50
2022-11-06T15:46:23.273Z,7.44
2022-11-06T15:49:18.577Z,7.38
2022-11-06T15:52:02.513Z,7.34
2022-11-06T15:54:40.680Z,7.26
2022-11-06T15:57:26.941Z,7.18
2022-11-06T16:00:12.639Z,7.19
2022-11-06T16:02:52.578Z,7.14
2022-11-06T16:05:21.848Z,7.11
2022-11-06T16:07:49.043Z,7.19
2022-11-06T16:10:21.265Z,7.13
2022-11-06T16:12:50.414Z,7.15
2022-11-06T16:15:45.269Z,7.25
2022-11-06T16:18:23.145Z,7.23
2022-11-06T16:21:08.010Z,7.18
2022-11-06T16:23:42.507Z,7.16
2022-11-06T16:26:21.099Z,7.16
2022-11-06T16:28:51.012Z,7.23
2022-11-06T16:31:25.034Z,7.29
2022-11-06T16:34:00.631Z,7.30
2022-11-06T16:36:30.579Z,7.20
2022-11-06T16:39:40.027Z,7.13
2022-11-06T16:42:19.760Z,7.17
2022-11-06T16:44:51.843Z,7.20
2022-11-06T16:47:23.291Z,7.23
2022-11-06T16:49:54.041Z,7.21
2022-11-06T16:52:33.139Z,7.35
2022-11-06T16:55:22.562Z,7.45
2022-11-06T16:57:54.838Z,7.42
2022-11-06T17:00:21.739Z,7.41
2022-11-06T17:02:55.733Z,7.37
2022-11-06T17:05:27.055Z,7.40
2022-11-06T17:08:18.192Z,7.38
2022-11-06T17:10:46.701Z,7.33
2022-11-06T17:13:21.579Z,7.31
2022-11-06T17:16:04.582Z,7.37
2022-11-06T17:18:38.459Z,7.40
2022-11-06T17:21:13.049Z,7.41
2022-11-06T17:23:40.944Z,7.45
2022-11-06T17:26:25.424Z,7.54
2022-11-06T17:28:52.714Z,7.63
2022-11-06T17:31:21.139Z,7.65
2022-11-06T17:33:48.922Z,7.66
2022-11-06T17:36:20.232Z,7.75
2022-11-06T17:38:48.088Z,7.72
2022-11-06T17:41:29.781Z,7.76
2022-11-06T17:43:59.849Z,7.66
2022-11-06T17:46:29.723Z,7.69
2022-11-06T17:48:57.309Z,7.70
2022-11-06T17:51:43.467Z,7.71
2022-11-06T17:54:11.175Z,7.70
2022-11-06T17:56:39.470Z,7.70
2022-11-06T17:59:08.723Z,7.71
2022-11-06T18:01:35.801Z,7.74
2022-11-06T18:04:03.107Z,7.80
2022-11-06T18:06:30.116Z,7.80
2022-11-06T18:08:58.516Z,7.80
2022-11-06T18:11:27.115Z,7.82
2022-11-06T18:13:55.820Z,7.88
2022-11-06T18:16:28.369Z,7.86
2022-11-06T18:18:56.599Z,7.83
2022-11-06T18:21:24.174Z,7.86
2022-11-06T18:23:51.781Z,7.85
2022-11-06T18:26:22.870Z,7.91
2022-11-06T18:28:51.001Z,7.90
2022-11-06T18:31:19.199Z,7.90
2022-11-06T18:33:46.615Z,7.85
2022-11-06T18:36:15.425Z,7.86
2022-11-06T18:38:43.173Z,7.83
2022-11-06T18:41:21.506Z,7.79
2022-11-06T18:43:49.029Z,7.76
2022-11-06T18:46:18.432Z,7.77
2022-11-06T18:48:45.645Z,7.71
2022-11-06T18:51:34.630Z,7.72
2022-11-06T18:54:06.090Z,7.68
2022-11-06T18:56:35.893Z,7.62
2022-11-06T18:59:05.202Z,7.55
2022-11-06T19:01:34.651Z,7.56
2022-11-06T19:04:03.651Z,7.89
2022-11-06T19:06:30.878Z,8.17
2022-11-06T19:08:58.843Z,8.22
2022-11-06T19:11:26.023Z,8.27
2022-11-06T19:13:52.946Z,8.33
2022-11-06T19:16:20.252Z,8.22
2022-11-06T19:21:30.724Z,8.29
2022-11-06T19:24:05.886Z,8.10
2022-11-06T19:26:37.355Z,8.19
2022-11-06T19:29:07.981Z,8.11
2022-11-06T19:31:37.169Z,8.00
2022-11-06T19:34:06.341Z,8.05
2022-11-06T19:36:33.549Z,8.21
2022-11-06T19:39:00.875Z,8.25
2022-11-06T19:41:28.948Z,7.97
2022-11-06T19:43:56.026Z,7.77
2022-11-06T19:46:28.262Z,7.75
2022-11-06T19:48:57.934Z,7.94
2022-11-06T19:51:25.813Z,7.87
2022-11-06T19:53:55.821Z,8.06
2022-11-06T19:56:23.019Z,8.07
2022-11-06T19:58:50.813Z,7.91
2022-11-06T20:01:18.496Z,8.05
2022-11-06T20:03:45.990Z,8.12
2022-11-06T20:06:13.988Z,8.02
2022-11-06T20:08:41.220Z,7.68
2022-11-06T20:11:12.561Z,7.53
2022-11-06T20:13:40.948Z,7.63
2022-11-06T20:16:12.784Z,7.60
2022-11-06T20:18:39.930Z,7.79
2022-11-06T20:21:09.939Z,7.83
2022-11-06T20:23:37.889Z,7.85
2022-11-06T20:26:06.513Z,7.36
2022-11-06T20:28:34.113Z,7.19
2022-11-06T20:31:11.785Z,7.43
2022-11-06T20:33:39.771Z,7.57
2022-11-06T20:36:25.731Z,7.60
2022-11-06T20:38:55.606Z,7.26
2022-11-06T20:41:23.778Z,7.34
2022-11-06T20:43:52.361Z,7.53
2022-11-06T20:46:20.463Z,7.57
2022-11-06T20:48:48.543Z,7.47
2022-11-06T20:51:25.521Z,7.63
2022-11-06T20:53:53.477Z,7.83
2022-11-06T20:56:25.285Z,7.89
2022-11-06T20:58:56.707Z,8.02
2022-11-06T21:01:29.037Z,7.98
2022-11-06T21:03:57.540Z,8.18
2022-11-06T21:06:26.415Z,8.25
2022-11-06T21:08:53.978Z,8.56
2022-11-06T21:11:25.774Z,8.65
2022-11-06T21:13:54.305Z,8.58
2022-11-06T21:16:29.365Z,8.73
2022-11-06T21:18:56.547Z,9.07
2022-11-06T21:21:26.585Z,9.04
2022-11-06T21:23:54.747Z,8.98
2022-11-06T21:26:22.996Z,9.13
2022-11-06T21:28:50.672Z,9.10
2022-11-06T21:31:25.023Z,9.30
2022-11-06T21:33:55.768Z,9.20
2022-11-06T21:36:26.877Z,9.27
2022-11-06T21:38:56.848Z,9.39
2022-11-06T21:41:26.985Z,9.36
2022-11-06T21:43:54.456Z,9.12
2022-11-06T21:46:22.226Z,9.15
2022-11-06T21:48:50.330Z,9.20
2022-11-06T21:51:23.192Z,9.10
2022-11-06T21:54:09.451Z,9.21
2022-11-06T21:56:37.971Z,9.21
2022-11-06T21:59:09.293Z,9.36
2022-11-06T22:01:37.718Z,9.58
2022-11-06T22:04:05.965Z,9.53
2022-11-06T22:06:33.045Z,9.60
2022-11-06T22:09:02.194Z,9.50
2022-11-06T22:11:30.151Z,9.63
2022-11-06T22:14:01.001Z,9.72
2022-11-06T22:16:34.695Z,9.67
2022-11-06T22:19:02.138Z,9.63
2022-11-06T22:21:30.921Z,9.66
2022-11-06T22:23:58.056Z,9.62
2022-11-06T22:26:29.769Z,9.69
2022-11-06T22:29:03.603Z,9.70
2022-11-06T22:31:30.882Z,9.72
2022-11-06T22:33:58.344Z,9.72
2022-11-06T22:36:25.997Z,9.71
2022-11-06T22:38:53.521Z,9.73
2022-11-06T22:41:23.946Z,9.71
2022-11-06T22:43:52.059Z,9.64
2022-11-06T22:46:23.160Z,9.70
2022-11-06T22:48:51.853Z,9.62
2022-11-06T22:51:22.741Z,9.61
2022-11-06T22:53:52.827Z,9.67
2022-11-06T22:56:21.966Z,9.62
2022-11-06T22:58:57.607Z,9.43
2022-11-06T23:01:27.424Z,9.39
2022-11-06T23:03:56.724Z,9.36
2022-11-06T23:06:25.532Z,9.33
2022-11-06T23:08:53.176Z,9.41
2022-11-06T23:11:21.777Z,9.40
2022-11-06T23:13:49.453Z,9.38
2022-11-06T23:16:40.551Z,9.28
2022-11-06T23:19:08.035Z,9.31
2022-11-06T23:21:35.549Z,9.26
2022-11-06T23:24:03.290Z,9.20
2022-11-06T23:26:30.224Z,9.14
2022-11-06T23:28:57.567Z,8.76
2022-11-06T23:31:24.689Z,8.67
2022-11-06T23:33:51.630Z,8.69
2022-11-06T23:36:19.220Z,8.81
2022-11-06T23:38:46.375Z,8.82
2022-11-06T23:41:35.245Z,8.66
2022-11-06T23:44:02.815Z,8.45
2022-11-06T23:46:32.796Z,8.22
2022-11-06T23:49:00.293Z,8.12
2022-11-06T23:51:27.935Z,8.02
2022-11-06T23:53:55.087Z,8.14
2022-11-06T23:56:22.077Z,8.03
2022-11-06T23:58:48.968Z,8.25
